Spring Creek, Colorado
Current Conditions -  °F | °C
As of 2:14 PM on Sunday 23 Nov 2014 (Local Time) from K7BM Reporting Station
Scattered Clouds Scattered Clouds  
Wind Chill: 17°   Ceiling: Unl
Heat Index: 28°   Visibility: 10mi
Dew Point:   Wind: 16mph
Humidity: 34%   Direction: 270°W
Pressure: 29.77"   Gusts: 29mph
Location:  38.7752°N, 106.586°W
Report Text: K7BM 232114Z AUTO 27014G25KT 240V300 10SM SCT032 SCT040 SCT048 M02/M16 A2977 RMK AO2
Loading
Personal Weather Stations






























Interactive Weather Map New forecast layout! Learn more

10-Day Weather Forecast

Advertisements
Track Severe Weather on mobile